sensor_id;sensor_type;location;lat;lon;timestamp;P1;durP1;ratioP1;P2;durP2;ratioP2
14732;SDS011;7457;50.960;6.830;2023-06-01T00:02:19;7.60;;;3.97;;
14732;SDS011;7457;50.960;6.830;2023-06-01T00:04:45;7.03;;;3.92;;
14732;SDS011;7457;50.960;6.830;2023-06-01T00:07:13;7.30;;;4.00;;
14732;SDS011;7457;50.960;6.830;2023-06-01T00:09:39;9.18;;;3.90;;
14732;SDS011;7457;50.960;6.830;2023-06-01T00:12:05;4.82;;;3.50;;
14732;SDS011;7457;50.960;6.830;2023-06-01T00:14:31;4.63;;;3.38;;
14732;SDS011;7457;50.960;6.830;2023-06-01T00:16:57;5.28;;;3.65;;
14732;SDS011;7457;50.960;6.830;2023-06-01T00:19:23;6.47;;;4.32;;
14732;SDS011;7457;50.960;6.830;2023-06-01T00:21:51;6.10;;;3.80;;
14732;SDS011;7457;50.960;6.830;2023-06-01T00:24:18;5.32;;;4.00;;
14732;SDS011;7457;50.960;6.830;2023-06-01T00:26:45;6.43;;;3.58;;
14732;SDS011;7457;50.960;6.830;2023-06-01T00:29:11;7.45;;;4.35;;
14732;SDS011;7457;50.960;6.830;2023-06-01T00:31:37;6.43;;;3.95;;
14732;SDS011;7457;50.960;6.830;2023-06-01T00:34:03;6.80;;;4.05;;
14732;SDS011;7457;50.960;6.830;2023-06-01T00:36:29;6.32;;;4.00;;
14732;SDS011;7457;50.960;6.830;2023-06-01T00:38:56;7.22;;;4.05;;
14732;SDS011;7457;50.960;6.830;2023-06-01T00:41:27;5.88;;;3.90;;
14732;SDS011;7457;50.960;6.830;2023-06-01T00:43:52;8.52;;;4.18;;
14732;SDS011;7457;50.960;6.830;2023-06-01T00:46:18;5.57;;;3.35;;
14732;SDS011;7457;50.960;6.830;2023-06-01T00:48:44;7.97;;;4.25;;
14732;SDS011;7457;50.960;6.830;2023-06-01T00:51:10;6.20;;;4.13;;
14732;SDS011;7457;50.960;6.830;2023-06-01T00:53:37;8.68;;;4.78;;
14732;SDS011;7457;50.960;6.830;2023-06-01T00:56:03;5.47;;;4.10;;
14732;SDS011;7457;50.960;6.830;2023-06-01T00:58:29;7.47;;;3.83;;
14732;SDS011;7457;50.960;6.830;2023-06-01T01:00:55;4.95;;;4.03;;
14732;SDS011;7457;50.960;6.830;2023-06-01T01:03:21;7.57;;;4.00;;
14732;SDS011;7457;50.960;6.830;2023-06-01T01:05:51;6.15;;;4.07;;
14732;SDS011;7457;50.960;6.830;2023-06-01T01:08:35;6.53;;;4.03;;
14732;SDS011;7457;50.960;6.830;2023-06-01T01:11:15;8.18;;;4.10;;
14732;SDS011;7457;50.960;6.830;2023-06-01T01:14:03;7.07;;;4.10;;
14732;SDS011;7457;50.960;6.830;2023-06-01T01:25:31;6.72;;;3.83;;
14732;SDS011;7457;50.960;6.830;2023-06-01T01:30:21;4.60;;;3.58;;
14732;SDS011;7457;50.960;6.830;2023-06-01T01:32:51;7.80;;;3.70;;
14732;SDS011;7457;50.960;6.830;2023-06-01T01:35:18;6.05;;;4.13;;
14732;SDS011;7457;50.960;6.830;2023-06-01T01:37:52;4.75;;;3.58;;
14732;SDS011;7457;50.960;6.830;2023-06-01T01:40:19;6.22;;;4.10;;
14732;SDS011;7457;50.960;6.830;2023-06-01T01:42:45;6.40;;;4.07;;
14732;SDS011;7457;50.960;6.830;2023-06-01T01:45:11;5.65;;;4.10;;
14732;SDS011;7457;50.960;6.830;2023-06-01T01:47:43;7.05;;;3.80;;
14732;SDS011;7457;50.960;6.830;2023-06-01T01:50:18;5.00;;;3.45;;
14732;SDS011;7457;50.960;6.830;2023-06-01T01:52:46;4.50;;;3.70;;
14732;SDS011;7457;50.960;6.830;2023-06-01T01:55:13;7.28;;;3.80;;
14732;SDS011;7457;50.960;6.830;2023-06-01T01:57:42;7.88;;;3.70;;
14732;SDS011;7457;50.960;6.830;2023-06-01T02:00:09;9.43;;;4.00;;
14732;SDS011;7457;50.960;6.830;2023-06-01T02:02:37;5.53;;;3.60;;
14732;SDS011;7457;50.960;6.830;2023-06-01T02:05:03;7.68;;;3.90;;
14732;SDS011;7457;50.960;6.830;2023-06-01T02:07:29;5.70;;;3.70;;
14732;SDS011;7457;50.960;6.830;2023-06-01T02:09:55;8.82;;;3.78;;
14732;SDS011;7457;50.960;6.830;2023-06-01T02:12:21;4.90;;;4.10;;
14732;SDS011;7457;50.960;6.830;2023-06-01T02:14:47;6.32;;;3.75;;
14732;SDS011;7457;50.960;6.830;2023-06-01T02:17:12;5.60;;;4.00;;
14732;SDS011;7457;50.960;6.830;2023-06-01T02:19:40;8.63;;;4.13;;
14732;SDS011;7457;50.960;6.830;2023-06-01T02:22:07;7.53;;;3.47;;
14732;SDS011;7457;50.960;6.830;2023-06-01T02:24:32;5.03;;;3.75;;
14732;SDS011;7457;50.960;6.830;2023-06-01T02:26:58;7.63;;;4.10;;
14732;SDS011;7457;50.960;6.830;2023-06-01T02:29:24;9.50;;;4.40;;
14732;SDS011;7457;50.960;6.830;2023-06-01T02:31:50;7.65;;;4.55;;
14732;SDS011;7457;50.960;6.830;2023-06-01T02:34:16;7.00;;;3.55;;
14732;SDS011;7457;50.960;6.830;2023-06-01T02:36:42;11.70;;;4.43;;
14732;SDS011;7457;50.960;6.830;2023-06-01T02:39:08;6.00;;;4.05;;
14732;SDS011;7457;50.960;6.830;2023-06-01T02:41:34;6.97;;;4.22;;
14732;SDS011;7457;50.960;6.830;2023-06-01T02:44:00;8.35;;;4.45;;
14732;SDS011;7457;50.960;6.830;2023-06-01T02:46:26;7.85;;;4.70;;
14732;SDS011;7457;50.960;6.830;2023-06-01T02:48:51;9.38;;;4.55;;
14732;SDS011;7457;50.960;6.830;2023-06-01T02:51:18;8.93;;;5.00;;
14732;SDS011;7457;50.960;6.830;2023-06-01T02:53:46;6.90;;;4.85;;
14732;SDS011;7457;50.960;6.830;2023-06-01T02:56:12;9.48;;;5.63;;
14732;SDS011;7457;50.960;6.830;2023-06-01T02:58:38;12.00;;;5.22;;
14732;SDS011;7457;50.960;6.830;2023-06-01T03:01:04;9.20;;;5.20;;
14732;SDS011;7457;50.960;6.830;2023-06-01T03:03:29;9.60;;;6.20;;
14732;SDS011;7457;50.960;6.830;2023-06-01T03:05:56;15.35;;;5.80;;
14732;SDS011;7457;50.960;6.830;2023-06-01T03:08:22;10.57;;;5.55;;
14732;SDS011;7457;50.960;6.830;2023-06-01T03:10:50;7.47;;;5.63;;
14732;SDS011;7457;50.960;6.830;2023-06-01T03:13:15;7.43;;;5.90;;
14732;SDS011;7457;50.960;6.830;2023-06-01T03:15:41;13.50;;;6.03;;
14732;SDS011;7457;50.960;6.830;2023-06-01T03:18:06;10.57;;;5.72;;
14732;SDS011;7457;50.960;6.830;2023-06-01T03:20:33;10.75;;;6.40;;
14732;SDS011;7457;50.960;6.830;2023-06-01T03:22:59;16.42;;;6.43;;
14732;SDS011;7457;50.960;6.830;2023-06-01T03:25:25;11.73;;;6.00;;
14732;SDS011;7457;50.960;6.830;2023-06-01T03:27:51;15.35;;;7.05;;
14732;SDS011;7457;50.960;6.830;2023-06-01T03:30:17;9.68;;;6.50;;
14732;SDS011;7457;50.960;6.830;2023-06-01T03:32:43;9.07;;;6.65;;
14732;SDS011;7457;50.960;6.830;2023-06-01T03:35:10;9.60;;;5.72;;
14732;SDS011;7457;50.960;6.830;2023-06-01T03:37:37;10.18;;;6.60;;
14732;SDS011;7457;50.960;6.830;2023-06-01T03:40:04;12.07;;;6.43;;
14732;SDS011;7457;50.960;6.830;2023-06-01T03:45:06;12.15;;;6.28;;
14732;SDS011;7457;50.960;6.830;2023-06-01T03:47:33;11.68;;;6.25;;
14732;SDS011;7457;50.960;6.830;2023-06-01T03:49:59;10.30;;;6.60;;
14732;SDS011;7457;50.960;6.830;2023-06-01T03:52:26;10.68;;;6.50;;
14732;SDS011;7457;50.960;6.830;2023-06-01T03:54:52;13.48;;;7.47;;
14732;SDS011;7457;50.960;6.830;2023-06-01T03:57:19;10.52;;;7.00;;
14732;SDS011;7457;50.960;6.830;2023-06-01T03:59:45;8.20;;;6.85;;
14732;SDS011;7457;50.960;6.830;2023-06-01T04:02:11;11.57;;;7.07;;
14732;SDS011;7457;50.960;6.830;2023-06-01T04:04:37;15.88;;;8.25;;
14732;SDS011;7457;50.960;6.830;2023-06-01T04:07:05;11.30;;;6.90;;
14732;SDS011;7457;50.960;6.830;2023-06-01T04:09:32;13.68;;;8.05;;
14732;SDS011;7457;50.960;6.830;2023-06-01T04:11:57;19.08;;;8.20;;
14732;SDS011;7457;50.960;6.830;2023-06-01T04:14:23;11.55;;;8.25;;
14732;SDS011;7457;50.960;6.830;2023-06-01T04:16:49;18.25;;;11.65;;
14732;SDS011;7457;50.960;6.830;2023-06-01T04:19:15;13.35;;;8.75;;
14732;SDS011;7457;50.960;6.830;2023-06-01T04:21:41;14.80;;;9.07;;
14732;SDS011;7457;50.960;6.830;2023-06-01T04:24:08;17.27;;;9.40;;
14732;SDS011;7457;50.960;6.830;2023-06-01T04:26:34;15.65;;;9.27;;
14732;SDS011;7457;50.960;6.830;2023-06-01T04:29:01;16.75;;;9.38;;
14732;SDS011;7457;50.960;6.830;2023-06-01T04:31:28;15.70;;;9.07;;
14732;SDS011;7457;50.960;6.830;2023-06-01T04:33:53;19.05;;;9.45;;
14732;SDS011;7457;50.960;6.830;2023-06-01T04:36:21;16.63;;;9.48;;
14732;SDS011;7457;50.960;6.830;2023-06-01T04:38:48;15.40;;;9.93;;
14732;SDS011;7457;50.960;6.830;2023-06-01T04:41:19;16.00;;;9.57;;
14732;SDS011;7457;50.960;6.830;2023-06-01T04:43:53;17.15;;;10.02;;
14732;SDS011;7457;50.960;6.830;2023-06-01T04:46:19;17.45;;;10.70;;
14732;SDS011;7457;50.960;6.830;2023-06-01T04:48:48;18.23;;;10.32;;
14732;SDS011;7457;50.960;6.830;2023-06-01T04:51:16;13.38;;;9.95;;
14732;SDS011;7457;50.960;6.830;2023-06-01T04:53:47;13.05;;;9.80;;
14732;SDS011;7457;50.960;6.830;2023-06-01T04:56:18;21.55;;;10.75;;
14732;SDS011;7457;50.960;6.830;2023-06-01T04:58:47;17.50;;;10.93;;
14732;SDS011;7457;50.960;6.830;2023-06-01T05:01:14;16.15;;;11.75;;
14732;SDS011;7457;50.960;6.830;2023-06-01T05:03:44;21.00;;;12.63;;
14732;SDS011;7457;50.960;6.830;2023-06-01T05:06:11;25.65;;;13.30;;
14732;SDS011;7457;50.960;6.830;2023-06-01T05:08:38;17.80;;;12.85;;
14732;SDS011;7457;50.960;6.830;2023-06-01T05:11:04;22.08;;;13.45;;
14732;SDS011;7457;50.960;6.830;2023-06-01T05:13:31;18.33;;;13.68;;
14732;SDS011;7457;50.960;6.830;2023-06-01T05:15:58;23.77;;;14.18;;
14732;SDS011;7457;50.960;6.830;2023-06-01T05:18:24;24.08;;;14.43;;
14732;SDS011;7457;50.960;6.830;2023-06-01T05:20:50;24.25;;;14.93;;
14732;SDS011;7457;50.960;6.830;2023-06-01T05:23:16;25.10;;;14.73;;
14732;SDS011;7457;50.960;6.830;2023-06-01T05:25:42;18.90;;;13.35;;
14732;SDS011;7457;50.960;6.830;2023-06-01T05:28:07;22.08;;;14.60;;
14732;SDS011;7457;50.960;6.830;2023-06-01T05:30:33;25.33;;;16.48;;
14732;SDS011;7457;50.960;6.830;2023-06-01T05:33:00;22.85;;;16.25;;
14732;SDS011;7457;50.960;6.830;2023-06-01T05:35:26;22.23;;;16.00;;
14732;SDS011;7457;50.960;6.830;2023-06-01T05:37:51;23.48;;;15.80;;
14732;SDS011;7457;50.960;6.830;2023-06-01T05:40:17;26.13;;;16.55;;
14732;SDS011;7457;50.960;6.830;2023-06-01T05:42:43;25.02;;;16.33;;
14732;SDS011;7457;50.960;6.830;2023-06-01T05:45:09;26.95;;;17.70;;
14732;SDS011;7457;50.960;6.830;2023-06-01T05:47:34;29.02;;;17.27;;
14732;SDS011;7457;50.960;6.830;2023-06-01T05:50:00;28.95;;;18.88;;
14732;SDS011;7457;50.960;6.830;2023-06-01T05:52:26;24.17;;;17.27;;
14732;SDS011;7457;50.960;6.830;2023-06-01T05:54:52;25.10;;;16.95;;
14732;SDS011;7457;50.960;6.830;2023-06-01T05:57:19;26.77;;;16.85;;
14732;SDS011;7457;50.960;6.830;2023-06-01T05:59:45;28.13;;;17.15;;
14732;SDS011;7457;50.960;6.830;2023-06-01T06:02:11;24.42;;;16.58;;
14732;SDS011;7457;50.960;6.830;2023-06-01T06:04:39;27.48;;;17.00;;
14732;SDS011;7457;50.960;6.830;2023-06-01T06:07:05;23.95;;;17.70;;
14732;SDS011;7457;50.960;6.830;2023-06-01T06:09:31;25.95;;;16.63;;
14732;SDS011;7457;50.960;6.830;2023-06-01T06:11:57;28.30;;;18.15;;
14732;SDS011;7457;50.960;6.830;2023-06-01T06:14:23;25.40;;;16.92;;
14732;SDS011;7457;50.960;6.830;2023-06-01T06:16:49;24.77;;;17.10;;
14732;SDS011;7457;50.960;6.830;2023-06-01T06:19:15;25.45;;;16.90;;
14732;SDS011;7457;50.960;6.830;2023-06-01T06:21:41;24.40;;;17.90;;
14732;SDS011;7457;50.960;6.830;2023-06-01T06:24:07;24.73;;;18.20;;
14732;SDS011;7457;50.960;6.830;2023-06-01T06:26:33;32.08;;;20.38;;
14732;SDS011;7457;50.960;6.830;2023-06-01T06:28:59;31.88;;;20.90;;
14732;SDS011;7457;50.960;6.830;2023-06-01T06:31:25;29.08;;;19.52;;
14732;SDS011;7457;50.960;6.830;2023-06-01T06:33:51;29.63;;;20.55;;
14732;SDS011;7457;50.960;6.830;2023-06-01T06:36:17;27.88;;;19.75;;
14732;SDS011;7457;50.960;6.830;2023-06-01T06:38:43;30.27;;;21.60;;
14732;SDS011;7457;50.960;6.830;2023-06-01T06:41:09;29.92;;;21.02;;
14732;SDS011;7457;50.960;6.830;2023-06-01T06:43:35;32.42;;;21.92;;
14732;SDS011;7457;50.960;6.830;2023-06-01T06:46:01;31.65;;;22.23;;
14732;SDS011;7457;50.960;6.830;2023-06-01T06:48:27;32.97;;;23.13;;
14732;SDS011;7457;50.960;6.830;2023-06-01T06:50:53;37.22;;;22.67;;
14732;SDS011;7457;50.960;6.830;2023-06-01T06:53:18;29.83;;;22.55;;
14732;SDS011;7457;50.960;6.830;2023-06-01T06:55:44;33.90;;;21.67;;
14732;SDS011;7457;50.960;6.830;2023-06-01T06:58:10;29.30;;;20.40;;
14732;SDS011;7457;50.960;6.830;2023-06-01T07:00:36;27.25;;;20.60;;
14732;SDS011;7457;50.960;6.830;2023-06-01T07:03:02;30.80;;;20.40;;
14732;SDS011;7457;50.960;6.830;2023-06-01T07:05:28;26.85;;;19.50;;
14732;SDS011;7457;50.960;6.830;2023-06-01T07:07:54;31.00;;;21.27;;
14732;SDS011;7457;50.960;6.830;2023-06-01T07:10:20;29.13;;;21.08;;
14732;SDS011;7457;50.960;6.830;2023-06-01T07:12:46;28.52;;;19.90;;
14732;SDS011;7457;50.960;6.830;2023-06-01T07:15:12;26.85;;;20.73;;
14732;SDS011;7457;50.960;6.830;2023-06-01T07:17:38;30.40;;;21.88;;
14732;SDS011;7457;50.960;6.830;2023-06-01T07:20:04;31.60;;;21.15;;
14732;SDS011;7457;50.960;6.830;2023-06-01T07:22:35;25.17;;;18.95;;
14732;SDS011;7457;50.960;6.830;2023-06-01T07:25:01;27.88;;;17.55;;
14732;SDS011;7457;50.960;6.830;2023-06-01T07:27:27;25.38;;;18.13;;
14732;SDS011;7457;50.960;6.830;2023-06-01T07:29:53;25.00;;;19.80;;
14732;SDS011;7457;50.960;6.830;2023-06-01T07:32:24;30.38;;;20.00;;
14732;SDS011;7457;50.960;6.830;2023-06-01T07:34:50;30.52;;;21.52;;
14732;SDS011;7457;50.960;6.830;2023-06-01T07:37:16;28.27;;;21.73;;
14732;SDS011;7457;50.960;6.830;2023-06-01T07:39:47;30.17;;;22.30;;
14732;SDS011;7457;50.960;6.830;2023-06-01T07:42:13;32.22;;;21.95;;
14732;SDS011;7457;50.960;6.830;2023-06-01T07:44:40;27.45;;;21.77;;
14732;SDS011;7457;50.960;6.830;2023-06-01T07:47:06;28.70;;;19.83;;
14732;SDS011;7457;50.960;6.830;2023-06-01T07:49:31;25.98;;;19.40;;
14732;SDS011;7457;50.960;6.830;2023-06-01T07:52:03;29.95;;;19.65;;
14732;SDS011;7457;50.960;6.830;2023-06-01T07:54:30;27.05;;;20.80;;
14732;SDS011;7457;50.960;6.830;2023-06-01T07:56:56;27.30;;;19.75;;
14732;SDS011;7457;50.960;6.830;2023-06-01T07:59:22;26.48;;;19.42;;
14732;SDS011;7457;50.960;6.830;2023-06-01T08:01:51;28.33;;;20.00;;
14732;SDS011;7457;50.960;6.830;2023-06-01T08:04:17;26.83;;;18.85;;
14732;SDS011;7457;50.960;6.830;2023-06-01T08:06:45;24.67;;;18.80;;
14732;SDS011;7457;50.960;6.830;2023-06-01T08:09:11;23.58;;;18.33;;
14732;SDS011;7457;50.960;6.830;2023-06-01T08:11:37;23.23;;;17.45;;
14732;SDS011;7457;50.960;6.830;2023-06-01T08:14:03;22.30;;;17.45;;
14732;SDS011;7457;50.960;6.830;2023-06-01T08:16:32;29.95;;;18.58;;
14732;SDS011;7457;50.960;6.830;2023-06-01T08:18:58;27.45;;;18.00;;
14732;SDS011;7457;50.960;6.830;2023-06-01T08:21:24;24.98;;;17.85;;
14732;SDS011;7457;50.960;6.830;2023-06-01T08:23:51;24.25;;;17.25;;
14732;SDS011;7457;50.960;6.830;2023-06-01T08:26:19;21.30;;;16.95;;
14732;SDS011;7457;50.960;6.830;2023-06-01T08:28:45;21.23;;;16.10;;
14732;SDS011;7457;50.960;6.830;2023-06-01T08:31:19;26.90;;;18.35;;
14732;SDS011;7457;50.960;6.830;2023-06-01T08:33:46;20.52;;;15.45;;
14732;SDS011;7457;50.960;6.830;2023-06-01T08:36:13;24.75;;;17.10;;
14732;SDS011;7457;50.960;6.830;2023-06-01T08:38:39;23.33;;;16.92;;
14732;SDS011;7457;50.960;6.830;2023-06-01T08:41:10;23.25;;;17.35;;
14732;SDS011;7457;50.960;6.830;2023-06-01T08:43:42;19.60;;;15.30;;
14732;SDS011;7457;50.960;6.830;2023-06-01T08:46:13;23.10;;;16.38;;
14732;SDS011;7457;50.960;6.830;2023-06-01T08:48:40;18.75;;;15.90;;
14732;SDS011;7457;50.960;6.830;2023-06-01T08:51:08;20.27;;;16.17;;
14732;SDS011;7457;50.960;6.830;2023-06-01T08:53:35;22.95;;;16.45;;
14732;SDS011;7457;50.960;6.830;2023-06-01T08:56:03;23.45;;;18.08;;
14732;SDS011;7457;50.960;6.830;2023-06-01T08:58:30;21.58;;;14.57;;
14732;SDS011;7457;50.960;6.830;2023-06-01T09:00:55;19.33;;;16.25;;
14732;SDS011;7457;50.960;6.830;2023-06-01T09:03:22;18.05;;;15.10;;
14732;SDS011;7457;50.960;6.830;2023-06-01T09:05:49;22.98;;;14.35;;
14732;SDS011;7457;50.960;6.830;2023-06-01T09:08:14;19.45;;;14.95;;
14732;SDS011;7457;50.960;6.830;2023-06-01T09:10:41;18.02;;;13.88;;
14732;SDS011;7457;50.960;6.830;2023-06-01T09:13:07;17.98;;;14.43;;
14732;SDS011;7457;50.960;6.830;2023-06-01T09:15:32;17.38;;;13.55;;
14732;SDS011;7457;50.960;6.830;2023-06-01T09:18:05;20.70;;;14.60;;
14732;SDS011;7457;50.960;6.830;2023-06-01T09:20:32;18.95;;;13.77;;
14732;SDS011;7457;50.960;6.830;2023-06-01T09:22:58;15.02;;;13.43;;
14732;SDS011;7457;50.960;6.830;2023-06-01T09:25:24;16.98;;;13.45;;
14732;SDS011;7457;50.960;6.830;2023-06-01T09:27:54;19.25;;;14.65;;
14732;SDS011;7457;50.960;6.830;2023-06-01T09:30:22;17.65;;;13.88;;
14732;SDS011;7457;50.960;6.830;2023-06-01T09:32:50;17.02;;;13.75;;
14732;SDS011;7457;50.960;6.830;2023-06-01T09:35:37;19.40;;;13.77;;
14732;SDS011;7457;50.960;6.830;2023-06-01T09:38:24;16.60;;;13.88;;
14732;SDS011;7457;50.960;6.830;2023-06-01T09:40:58;18.98;;;14.75;;
14732;SDS011;7457;50.960;6.830;2023-06-01T09:43:27;15.23;;;13.70;;
14732;SDS011;7457;50.960;6.830;2023-06-01T09:46:06;17.13;;;13.25;;
14732;SDS011;7457;50.960;6.830;2023-06-01T09:48:33;17.95;;;14.25;;
14732;SDS011;7457;50.960;6.830;2023-06-01T09:50:59;17.92;;;14.32;;
14732;SDS011;7457;50.960;6.830;2023-06-01T09:53:25;18.40;;;14.80;;
14732;SDS011;7457;50.960;6.830;2023-06-01T09:55:58;20.45;;;15.18;;
14732;SDS011;7457;50.960;6.830;2023-06-01T09:58:25;18.52;;;15.20;;
14732;SDS011;7457;50.960;6.830;2023-06-01T10:00:51;21.98;;;15.98;;
14732;SDS011;7457;50.960;6.830;2023-06-01T10:03:18;18.90;;;16.33;;
14732;SDS011;7457;50.960;6.830;2023-06-01T10:05:46;21.08;;;16.30;;
14732;SDS011;7457;50.960;6.830;2023-06-01T10:08:13;17.73;;;14.93;;
14732;SDS011;7457;50.960;6.830;2023-06-01T10:10:42;20.83;;;16.40;;
14732;SDS011;7457;50.960;6.830;2023-06-01T10:13:10;19.67;;;16.20;;
14732;SDS011;7457;50.960;6.830;2023-06-01T10:15:37;17.15;;;15.43;;
14732;SDS011;7457;50.960;6.830;2023-06-01T10:18:03;19.75;;;16.15;;
14732;SDS011;7457;50.960;6.830;2023-06-01T10:20:33;20.40;;;14.40;;
14732;SDS011;7457;50.960;6.830;2023-06-01T10:23:00;18.77;;;16.25;;
14732;SDS011;7457;50.960;6.830;2023-06-01T10:25:28;20.45;;;17.35;;
14732;SDS011;7457;50.960;6.830;2023-06-01T10:28:00;22.70;;;17.70;;
14732;SDS011;7457;50.960;6.830;2023-06-01T10:30:29;24.65;;;21.23;;
14732;SDS011;7457;50.960;6.830;2023-06-01T10:32:54;26.60;;;22.55;;
14732;SDS011;7457;50.960;6.830;2023-06-01T10:40:37;25.85;;;21.33;;
14732;SDS011;7457;50.960;6.830;2023-06-01T10:43:04;29.75;;;22.52;;
14732;SDS011;7457;50.960;6.830;2023-06-01T10:48:00;28.88;;;21.77;;
14732;SDS011;7457;50.960;6.830;2023-06-01T10:50:29;26.73;;;23.52;;
14732;SDS011;7457;50.960;6.830;2023-06-01T10:52:55;28.65;;;24.58;;
14732;SDS011;7457;50.960;6.830;2023-06-01T10:55:25;28.52;;;24.55;;
14732;SDS011;7457;50.960;6.830;2023-06-01T10:57:52;32.97;;;23.77;;
14732;SDS011;7457;50.960;6.830;2023-06-01T11:00:52;27.80;;;24.10;;
14732;SDS011;7457;50.960;6.830;2023-06-01T11:06:25;27.10;;;21.33;;
14732;SDS011;7457;50.960;6.830;2023-06-01T11:08:55;28.05;;;22.85;;
14732;SDS011;7457;50.960;6.830;2023-06-01T11:11:22;28.77;;;23.27;;
14732;SDS011;7457;50.960;6.830;2023-06-01T11:14:21;27.42;;;23.02;;
14732;SDS011;7457;50.960;6.830;2023-06-01T11:16:41;27.80;;;21.60;;
14732;SDS011;7457;50.960;6.830;2023-06-01T11:19:07;29.63;;;23.38;;
14732;SDS011;7457;50.960;6.830;2023-06-01T11:24:15;25.40;;;21.65;;
14732;SDS011;7457;50.960;6.830;2023-06-01T11:26:48;26.27;;;20.88;;
14732;SDS011;7457;50.960;6.830;2023-06-01T11:31:46;25.33;;;21.20;;
14732;SDS011;7457;50.960;6.830;2023-06-01T11:34:17;29.55;;;22.52;;
14732;SDS011;7457;50.960;6.830;2023-06-01T11:36:46;21.67;;;19.35;;
14732;SDS011;7457;50.960;6.830;2023-06-01T11:39:16;24.30;;;20.13;;
14732;SDS011;7457;50.960;6.830;2023-06-01T11:42:02;22.23;;;16.83;;
14732;SDS011;7457;50.960;6.830;2023-06-01T11:44:32;23.48;;;16.42;;
14732;SDS011;7457;50.960;6.830;2023-06-01T11:46:59;21.30;;;14.65;;
14732;SDS011;7457;50.960;6.830;2023-06-01T11:49:26;18.40;;;13.98;;
14732;SDS011;7457;50.960;6.830;2023-06-01T11:51:52;21.08;;;14.40;;
14732;SDS011;7457;50.960;6.830;2023-06-01T11:54:27;17.02;;;13.25;;
14732;SDS011;7457;50.960;6.830;2023-06-01T11:56:54;16.75;;;11.93;;
14732;SDS011;7457;50.960;6.830;2023-06-01T11:59:21;16.90;;;13.55;;
14732;SDS011;7457;50.960;6.830;2023-06-01T12:01:47;16.38;;;11.43;;
14732;SDS011;7457;50.960;6.830;2023-06-01T12:04:24;16.02;;;12.02;;
14732;SDS011;7457;50.960;6.830;2023-06-01T12:06:50;17.15;;;10.57;;
14732;SDS011;7457;50.960;6.830;2023-06-01T12:09:16;18.90;;;10.23;;
14732;SDS011;7457;50.960;6.830;2023-06-01T12:11:45;14.48;;;9.95;;
14732;SDS011;7457;50.960;6.830;2023-06-01T12:14:11;16.80;;;10.05;;
14732;SDS011;7457;50.960;6.830;2023-06-01T12:16:56;17.75;;;10.48;;
14732;SDS011;7457;50.960;6.830;2023-06-01T12:19:27;15.15;;;9.68;;
14732;SDS011;7457;50.960;6.830;2023-06-01T12:21:54;12.93;;;9.73;;
14732;SDS011;7457;50.960;6.830;2023-06-01T12:24:31;12.45;;;10.15;;
14732;SDS011;7457;50.960;6.830;2023-06-01T12:26:58;16.85;;;9.55;;
14732;SDS011;7457;50.960;6.830;2023-06-01T12:29:38;15.07;;;8.65;;
14732;SDS011;7457;50.960;6.830;2023-06-01T12:32:04;17.23;;;10.23;;
14732;SDS011;7457;50.960;6.830;2023-06-01T12:34:30;15.82;;;10.18;;
14732;SDS011;7457;50.960;6.830;2023-06-01T12:36:56;19.13;;;9.90;;
14732;SDS011;7457;50.960;6.830;2023-06-01T12:39:31;13.18;;;9.00;;
14732;SDS011;7457;50.960;6.830;2023-06-01T12:42:02;15.80;;;9.75;;
14732;SDS011;7457;50.960;6.830;2023-06-01T12:44:30;19.55;;;9.55;;
14732;SDS011;7457;50.960;6.830;2023-06-01T12:46:57;16.02;;;9.40;;
14732;SDS011;7457;50.960;6.830;2023-06-01T12:49:24;15.10;;;8.60;;
14732;SDS011;7457;50.960;6.830;2023-06-01T12:51:50;11.38;;;8.30;;
14732;SDS011;7457;50.960;6.830;2023-06-01T12:54:16;14.38;;;9.23;;
14732;SDS011;7457;50.960;6.830;2023-06-01T12:56:42;17.85;;;8.95;;
14732;SDS011;7457;50.960;6.830;2023-06-01T12:59:08;13.75;;;9.05;;
14732;SDS011;7457;50.960;6.830;2023-06-01T13:01:35;17.27;;;9.00;;
14732;SDS011;7457;50.960;6.830;2023-06-01T13:04:00;14.73;;;8.80;;
14732;SDS011;7457;50.960;6.830;2023-06-01T13:06:28;15.32;;;8.35;;
14732;SDS011;7457;50.960;6.830;2023-06-01T13:08:54;13.05;;;8.68;;
14732;SDS011;7457;50.960;6.830;2023-06-01T13:11:20;16.65;;;8.68;;
14732;SDS011;7457;50.960;6.830;2023-06-01T13:13:49;16.88;;;8.52;;
14732;SDS011;7457;50.960;6.830;2023-06-01T13:16:15;15.15;;;8.40;;
14732;SDS011;7457;50.960;6.830;2023-06-01T13:18:40;16.10;;;8.35;;
14732;SDS011;7457;50.960;6.830;2023-06-01T13:21:06;19.25;;;9.30;;
14732;SDS011;7457;50.960;6.830;2023-06-01T13:23:32;14.35;;;8.77;;
14732;SDS011;7457;50.960;6.830;2023-06-01T13:25:58;16.65;;;9.20;;
14732;SDS011;7457;50.960;6.830;2023-06-01T13:28:24;17.80;;;8.07;;
14732;SDS011;7457;50.960;6.830;2023-06-01T13:30:50;16.55;;;8.40;;
14732;SDS011;7457;50.960;6.830;2023-06-01T13:33:15;15.82;;;8.07;;
14732;SDS011;7457;50.960;6.830;2023-06-01T13:35:41;18.02;;;8.85;;
14732;SDS011;7457;50.960;6.830;2023-06-01T13:38:07;15.55;;;8.43;;
14732;SDS011;7457;50.960;6.830;2023-06-01T13:40:33;11.85;;;8.20;;
14732;SDS011;7457;50.960;6.830;2023-06-01T13:42:58;14.43;;;8.23;;
14732;SDS011;7457;50.960;6.830;2023-06-01T13:45:25;13.52;;;8.60;;
14732;SDS011;7457;50.960;6.830;2023-06-01T13:47:51;15.90;;;7.63;;
14732;SDS011;7457;50.960;6.830;2023-06-01T13:50:20;14.18;;;8.23;;
14732;SDS011;7457;50.960;6.830;2023-06-01T13:52:46;12.18;;;7.35;;
14732;SDS011;7457;50.960;6.830;2023-06-01T13:55:11;13.05;;;7.28;;
14732;SDS011;7457;50.960;6.830;2023-06-01T13:57:37;9.27;;;7.32;;
14732;SDS011;7457;50.960;6.830;2023-06-01T14:00:05;13.48;;;7.78;;
14732;SDS011;7457;50.960;6.830;2023-06-01T14:02:33;12.88;;;7.28;;
14732;SDS011;7457;50.960;6.830;2023-06-01T14:04:59;16.15;;;7.88;;
14732;SDS011;7457;50.960;6.830;2023-06-01T14:07:25;14.27;;;7.78;;
14732;SDS011;7457;50.960;6.830;2023-06-01T14:09:51;17.73;;;8.20;;
14732;SDS011;7457;50.960;6.830;2023-06-01T14:12:17;10.68;;;7.95;;
14732;SDS011;7457;50.960;6.830;2023-06-01T14:14:42;14.35;;;7.50;;
14732;SDS011;7457;50.960;6.830;2023-06-01T14:17:08;13.43;;;8.07;;
14732;SDS011;7457;50.960;6.830;2023-06-01T14:19:34;13.98;;;7.93;;
14732;SDS011;7457;50.960;6.830;2023-06-01T14:21:59;14.23;;;8.07;;
14732;SDS011;7457;50.960;6.830;2023-06-01T14:24:25;12.65;;;8.15;;
14732;SDS011;7457;50.960;6.830;2023-06-01T14:26:51;15.80;;;8.73;;
14732;SDS011;7457;50.960;6.830;2023-06-01T14:29:16;12.75;;;8.00;;
14732;SDS011;7457;50.960;6.830;2023-06-01T14:31:42;16.50;;;9.18;;
14732;SDS011;7457;50.960;6.830;2023-06-01T14:34:08;13.68;;;8.82;;
14732;SDS011;7457;50.960;6.830;2023-06-01T14:36:33;12.20;;;7.88;;
14732;SDS011;7457;50.960;6.830;2023-06-01T14:38:59;13.05;;;7.85;;
14732;SDS011;7457;50.960;6.830;2023-06-01T14:41:25;13.23;;;8.00;;
14732;SDS011;7457;50.960;6.830;2023-06-01T14:43:50;15.68;;;7.93;;
14732;SDS011;7457;50.960;6.830;2023-06-01T14:46:16;10.60;;;7.45;;
14732;SDS011;7457;50.960;6.830;2023-06-01T14:48:42;17.98;;;9.55;;
14732;SDS011;7457;50.960;6.830;2023-06-01T14:51:07;17.15;;;8.82;;
14732;SDS011;7457;50.960;6.830;2023-06-01T14:53:33;14.20;;;7.68;;
14732;SDS011;7457;50.960;6.830;2023-06-01T14:56:00;12.98;;;7.45;;
14732;SDS011;7457;50.960;6.830;2023-06-01T14:58:26;12.23;;;7.18;;
14732;SDS011;7457;50.960;6.830;2023-06-01T15:00:51;19.77;;;8.30;;
14732;SDS011;7457;50.960;6.830;2023-06-01T15:03:18;16.15;;;8.57;;
14732;SDS011;7457;50.960;6.830;2023-06-01T15:05:43;14.07;;;7.75;;
14732;SDS011;7457;50.960;6.830;2023-06-01T15:08:09;13.60;;;7.50;;
14732;SDS011;7457;50.960;6.830;2023-06-01T15:10:35;14.85;;;8.77;;
14732;SDS011;7457;50.960;6.830;2023-06-01T15:13:00;14.57;;;7.90;;
14732;SDS011;7457;50.960;6.830;2023-06-01T15:15:26;12.95;;;7.90;;